createdAt,value
2018-12-18T00:00:55.314Z,4.48
2018-12-18T00:03:25.232Z,4.64
2018-12-18T00:05:54.740Z,4.70
2018-12-18T00:08:24.204Z,4.98
2018-12-18T00:10:59.193Z,5.03
2018-12-18T00:13:28.758Z,4.41
2018-12-18T00:15:57.875Z,4.71
2018-12-18T00:18:27.218Z,4.52
2018-12-18T00:20:56.613Z,4.75
2018-12-18T00:23:26.082Z,4.74
2018-12-18T00:25:55.465Z,4.65
2018-12-18T00:28:25.456Z,4.77
2018-12-18T00:30:54.838Z,4.68
2018-12-18T00:33:24.221Z,4.48
2018-12-18T00:35:53.626Z,4.31
2018-12-18T00:38:23.043Z,4.35
2018-12-18T00:40:52.670Z,4.68
2018-12-18T00:43:22.114Z,4.49
2018-12-18T00:45:51.719Z,4.36
2018-12-18T00:48:21.167Z,4.22
2018-12-18T00:50:50.712Z,4.18
2018-12-18T00:53:20.391Z,4.07
2018-12-18T00:55:49.579Z,4.21
2018-12-18T00:58:19.022Z,4.10
2018-12-18T01:00:48.123Z,4.29
2018-12-18T01:03:17.417Z,4.30
2018-12-18T01:05:46.734Z,4.25
2018-12-18T01:08:16.347Z,4.33
2018-12-18T01:10:45.835Z,4.26
2018-12-18T01:13:15.530Z,4.67
2018-12-18T01:15:44.930Z,4.53
2018-12-18T01:18:14.204Z,4.76
2018-12-18T01:20:43.726Z,4.61
2018-12-18T01:23:13.448Z,4.44
2018-12-18T01:25:42.839Z,4.30
2018-12-18T01:28:12.376Z,4.08
2018-12-18T01:30:42.181Z,4.14
2018-12-18T01:33:11.695Z,4.09
2018-12-18T01:35:41.216Z,4.01
2018-12-18T01:38:10.674Z,3.89
2018-12-18T01:40:40.301Z,4.11
2018-12-18T01:43:09.799Z,3.93
2018-12-18T01:45:39.261Z,4.03
2018-12-18T01:48:08.825Z,4.18
2018-12-18T01:50:38.065Z,4.02
2018-12-18T01:53:07.585Z,4.00
2018-12-18T01:55:37.187Z,4.12
2018-12-18T01:58:06.759Z,4.28
2018-12-18T02:00:35.991Z,4.26
2018-12-18T02:03:05.499Z,4.27
2018-12-18T02:05:34.890Z,4.53
2018-12-18T02:08:04.709Z,4.96
2018-12-18T02:10:34.169Z,4.77
2018-12-18T02:13:03.665Z,4.61
2018-12-18T02:15:32.848Z,4.42
2018-12-18T02:18:02.398Z,4.62
2018-12-18T02:20:32.516Z,4.85
2018-12-18T02:23:02.059Z,4.58
2018-12-18T02:25:31.498Z,4.38
2018-12-18T02:28:00.837Z,4.52
2018-12-18T02:30:30.618Z,4.16
2018-12-18T02:33:00.381Z,4.21
2018-12-18T02:35:30.061Z,3.86
2018-12-18T02:37:59.398Z,3.90
2018-12-18T02:40:28.688Z,4.16
2018-12-18T02:42:58.046Z,4.02
2018-12-18T02:45:27.539Z,4.56
2018-12-18T02:47:56.969Z,4.53
2018-12-18T02:50:26.819Z,4.72
2018-12-18T02:52:56.311Z,4.30
2018-12-18T02:55:25.601Z,4.27
2018-12-18T02:57:55.173Z,4.12
2018-12-18T03:00:24.578Z,4.10
2018-12-18T03:02:53.919Z,4.01
2018-12-18T03:05:23.386Z,3.96
2018-12-18T03:07:52.789Z,4.04
2018-12-18T03:10:22.300Z,3.97
2018-12-18T03:12:51.745Z,4.13
2018-12-18T03:15:21.630Z,4.41
2018-12-18T03:17:51.122Z,4.25
2018-12-18T03:20:20.665Z,4.07
2018-12-18T03:22:50.012Z,4.05
2018-12-18T03:25:19.457Z,4.08
2018-12-18T03:27:48.888Z,3.86
2018-12-18T03:30:18.324Z,4.13
2018-12-18T03:32:51.359Z,4.26
2018-12-18T03:35:20.458Z,4.11
2018-12-18T03:37:49.680Z,4.18
2018-12-18T03:40:19.081Z,4.04
2018-12-18T03:42:48.759Z,3.83
2018-12-18T03:45:18.259Z,3.87
2018-12-18T03:47:47.621Z,3.90
2018-12-18T03:50:17.303Z,3.84
2018-12-18T03:52:46.521Z,3.66
2018-12-18T03:55:15.915Z,3.80
2018-12-18T03:57:45.106Z,4.16
2018-12-18T04:00:14.633Z,3.85
2018-12-18T04:02:44.140Z,4.06
2018-12-18T04:05:13.650Z,3.93
2018-12-18T04:07:42.923Z,4.02
2018-12-18T04:10:12.353Z,3.75
2018-12-18T04:12:41.964Z,3.93
2018-12-18T04:15:11.457Z,3.88
2018-12-18T04:17:40.725Z,3.79
2018-12-18T04:20:10.133Z,3.84
2018-12-18T04:22:39.724Z,3.99
2018-12-18T04:25:09.023Z,4.01
2018-12-18T04:27:39.102Z,3.97
2018-12-18T04:30:08.650Z,3.80
2018-12-18T04:32:37.883Z,3.83
2018-12-18T04:35:07.230Z,3.97
2018-12-18T04:37:36.554Z,3.86
2018-12-18T04:40:06.213Z,3.91
2018-12-18T04:42:35.380Z,4.01
2018-12-18T04:45:04.809Z,4.01
2018-12-18T04:47:34.611Z,4.07
2018-12-18T04:50:04.060Z,3.85
2018-12-18T04:52:33.773Z,4.10
2018-12-18T04:55:03.034Z,4.29
2018-12-18T04:57:32.514Z,4.17
2018-12-18T05:00:01.847Z,4.15
2018-12-18T05:02:31.395Z,4.25
2018-12-18T05:05:00.618Z,4.07
2018-12-18T05:07:30.234Z,4.01
2018-12-18T05:09:59.956Z,3.86
2018-12-18T05:12:29.471Z,4.03
2018-12-18T05:14:59.025Z,4.16
2018-12-18T05:17:28.496Z,4.16
2018-12-18T05:19:57.956Z,4.12
2018-12-18T05:22:27.749Z,4.05
2018-12-18T05:24:57.272Z,3.98
2018-12-18T05:27:26.836Z,4.16
2018-12-18T05:29:56.129Z,3.96
2018-12-18T05:32:25.792Z,4.15
2018-12-18T05:34:56.665Z,4.26
2018-12-18T05:37:24.634Z,4.14
2018-12-18T05:39:54.281Z,4.37
2018-12-18T05:42:23.811Z,4.49
2018-12-18T05:44:53.191Z,4.16
2018-12-18T05:47:22.704Z,3.99
2018-12-18T05:49:52.053Z,3.80
2018-12-18T05:52:21.531Z,3.87
2018-12-18T05:54:50.832Z,4.20
2018-12-18T05:57:20.212Z,3.53
2018-12-18T05:59:49.354Z,3.83
2018-12-18T06:02:18.409Z,3.62
2018-12-18T06:04:47.443Z,4.35
2018-12-18T06:07:16.578Z,4.20
2018-12-18T06:09:45.769Z,3.95
2018-12-18T06:12:15.073Z,3.69
2018-12-18T06:14:44.374Z,3.57
2018-12-18T06:17:13.639Z,3.57
2018-12-18T06:19:42.816Z,3.78
2018-12-18T06:22:12.116Z,3.73
2018-12-18T06:24:41.248Z,3.40
2018-12-18T06:27:10.452Z,3.54
2018-12-18T06:29:39.691Z,3.39
2018-12-18T06:32:08.767Z,3.16
2018-12-18T06:34:38.025Z,3.09
2018-12-18T06:37:07.367Z,3.43
2018-12-18T06:39:36.492Z,3.55
2018-12-18T06:42:05.872Z,3.20
2018-12-18T06:44:35.190Z,3.87
2018-12-18T06:47:04.438Z,3.22
2018-12-18T06:49:33.688Z,3.49
2018-12-18T06:52:02.820Z,3.40
2018-12-18T06:54:32.025Z,3.28
2018-12-18T06:57:01.190Z,3.46
2018-12-18T06:59:30.493Z,3.48
2018-12-18T07:01:59.827Z,3.17
2018-12-18T07:04:29.106Z,3.23
2018-12-18T07:06:58.204Z,3.24
2018-12-18T07:09:27.403Z,3.20
2018-12-18T07:11:56.498Z,3.13
2018-12-18T07:14:25.753Z,3.37
2018-12-18T07:16:55.048Z,2.93
2018-12-18T07:19:24.294Z,2.81
2018-12-18T07:21:53.558Z,2.74
2018-12-18T07:24:22.846Z,2.83
2018-12-18T07:26:52.217Z,2.97
2018-12-18T07:29:21.621Z,3.19
2018-12-18T07:31:50.877Z,3.21
2018-12-18T07:34:20.269Z,3.51
2018-12-18T07:36:49.443Z,3.52
2018-12-18T07:39:18.642Z,3.67
2018-12-18T07:41:47.830Z,3.41
2018-12-18T07:44:16.944Z,3.79
2018-12-18T07:46:46.181Z,3.68
2018-12-18T07:49:15.586Z,3.49
2018-12-18T07:51:44.929Z,3.61
2018-12-18T07:54:14.027Z,3.84
2018-12-18T07:56:43.132Z,3.70
2018-12-18T07:59:12.268Z,3.44
2018-12-18T08:01:41.494Z,3.44
2018-12-18T08:04:10.473Z,3.42
2018-12-18T08:06:39.457Z,3.61
2018-12-18T08:09:09.461Z,3.62
2018-12-18T08:11:38.690Z,3.64
2018-12-18T08:14:07.940Z,3.78
2018-12-18T08:16:37.351Z,3.86
2018-12-18T08:19:06.422Z,3.93
2018-12-18T08:21:35.510Z,4.10
2018-12-18T08:24:04.644Z,3.85
2018-12-18T08:26:34.027Z,3.90
2018-12-18T08:29:03.551Z,4.13
2018-12-18T08:31:32.766Z,3.92
2018-12-18T08:34:02.045Z,4.02
2018-12-18T08:36:31.170Z,4.04
2018-12-18T08:39:00.325Z,3.85
2018-12-18T08:41:29.283Z,3.67
2018-12-18T08:43:58.625Z,3.51
2018-12-18T08:46:27.969Z,3.44
2018-12-18T08:48:57.171Z,3.24
2018-12-18T08:51:26.480Z,3.35
2018-12-18T08:53:56.307Z,3.40
2018-12-18T08:56:25.749Z,3.33
2018-12-18T08:58:54.939Z,3.29
2018-12-18T09:01:23.954Z,3.05
2018-12-18T09:03:52.871Z,3.19
2018-12-18T09:06:21.867Z,3.19
2018-12-18T09:08:50.851Z,3.14
2018-12-18T09:11:19.802Z,3.08
2018-12-18T09:13:48.747Z,3.20
2018-12-18T09:16:22.817Z,3.26
2018-12-18T09:18:51.748Z,3.30
2018-12-18T09:21:20.742Z,3.32
2018-12-18T09:23:49.745Z,3.24
2018-12-18T09:26:18.673Z,3.92
2018-12-18T09:28:47.610Z,3.76
2018-12-18T09:31:16.596Z,3.74
2018-12-18T09:33:45.546Z,3.45
2018-12-18T09:36:14.482Z,3.38
2018-12-18T09:38:48.610Z,3.36
2018-12-18T09:41:22.464Z,3.66
2018-12-18T09:43:57.230Z,3.79
2018-12-18T09:46:26.174Z,3.72
2018-12-18T09:48:55.115Z,3.57
2018-12-18T09:51:24.109Z,3.56
2018-12-18T09:53:53.050Z,3.54
2018-12-18T09:56:21.979Z,3.57
2018-12-18T09:58:51.005Z,3.75
2018-12-18T10:01:20.016Z,3.53
2018-12-18T10:03:48.954Z,3.76
2018-12-18T10:06:18.304Z,3.65
2018-12-18T10:08:47.249Z,4.18
2018-12-18T10:11:16.244Z,3.85
2018-12-18T10:13:45.282Z,3.76
2018-12-18T10:16:14.242Z,3.86
2018-12-18T10:18:44.098Z,3.83
2018-12-18T10:21:13.160Z,3.99
2018-12-18T10:23:42.175Z,3.75
2018-12-18T10:26:11.125Z,3.59
2018-12-18T10:28:40.189Z,3.51
2018-12-18T10:31:09.180Z,3.92
2018-12-18T10:33:38.146Z,3.72
2018-12-18T10:36:07.198Z,3.80
2018-12-18T10:38:36.146Z,3.69
2018-12-18T10:41:05.150Z,3.62
2018-12-18T10:43:34.217Z,3.67
2018-12-18T10:46:03.231Z,3.56
2018-12-18T10:48:32.231Z,3.58
2018-12-18T10:51:01.260Z,3.67
2018-12-18T10:53:30.355Z,3.85
2018-12-18T10:55:59.311Z,3.86
2018-12-18T10:58:28.325Z,3.87
2018-12-18T11:01:02.369Z,4.16
2018-12-18T11:03:31.394Z,3.62
2018-12-18T11:06:00.375Z,3.73
2018-12-18T11:08:29.492Z,3.88
2018-12-18T11:10:58.613Z,3.80
2018-12-18T11:13:27.577Z,3.79
2018-12-18T11:15:56.522Z,3.89
2018-12-18T11:18:25.600Z,3.96
2018-12-18T11:20:54.539Z,4.13
2018-12-18T11:23:23.673Z,4.20
2018-12-18T11:25:52.680Z,4.15
2018-12-18T11:28:21.611Z,3.88
2018-12-18T11:30:50.557Z,3.86
2018-12-18T11:33:19.659Z,4.18
2018-12-18T11:35:48.664Z,4.14
2018-12-18T11:38:17.585Z,3.90
2018-12-18T11:40:46.990Z,3.77
2018-12-18T11:43:15.901Z,4.28
2018-12-18T11:45:44.837Z,4.53
2018-12-18T11:48:13.821Z,4.16
2018-12-18T11:50:42.786Z,4.32
2018-12-18T11:53:11.784Z,4.02
2018-12-18T11:55:40.775Z,3.80
2018-12-18T11:58:09.717Z,3.89
2018-12-18T12:00:38.740Z,3.76
2018-12-18T12:03:08.426Z,3.79
2018-12-18T12:05:38.154Z,3.72
2018-12-18T12:08:06.442Z,3.79
2018-12-18T12:10:35.685Z,4.11
2018-12-18T12:13:04.640Z,4.19
2018-12-18T12:15:33.619Z,4.17
2018-12-18T12:18:03.101Z,4.19
2018-12-18T12:20:32.065Z,4.96
2018-12-18T12:23:01.010Z,4.69
2018-12-18T12:25:30.019Z,4.74
2018-12-18T12:28:05.934Z,4.63
2018-12-18T12:30:35.662Z,4.54
2018-12-18T12:33:04.625Z,4.67
2018-12-18T12:35:33.650Z,4.96
2018-12-18T12:38:02.629Z,5.35
2018-12-18T12:40:31.618Z,5.47
2018-12-18T12:43:00.557Z,5.12
2018-12-18T12:45:29.602Z,4.85
2018-12-18T12:48:00.420Z,4.96
2018-12-18T12:50:29.428Z,4.84
2018-12-18T12:52:58.737Z,5.30
2018-12-18T12:55:27.713Z,5.05
2018-12-18T12:57:56.646Z,5.28
2018-12-18T13:00:25.649Z,5.56
2018-12-18T13:02:54.604Z,5.43
2018-12-18T13:05:23.520Z,5.28
2018-12-18T13:07:52.506Z,5.16
2018-12-18T13:10:21.461Z,5.84
2018-12-18T13:12:50.416Z,5.55
2018-12-18T13:15:19.669Z,5.98
2018-12-18T13:17:48.605Z,5.81
2018-12-18T13:20:17.654Z,6.38
2018-12-18T13:22:47.121Z,6.11
2018-12-18T13:25:16.042Z,5.80
2018-12-18T13:27:44.981Z,6.04
2018-12-18T13:30:13.998Z,5.65
2018-12-18T13:32:42.964Z,6.03
2018-12-18T13:35:11.950Z,6.33
2018-12-18T13:37:40.952Z,6.17
2018-12-18T13:40:09.941Z,6.24
2018-12-18T13:42:38.918Z,6.35
2018-12-18T13:45:07.955Z,6.71
2018-12-18T13:47:36.908Z,6.55
2018-12-18T13:50:06.016Z,5.42
2018-12-18T13:52:35.010Z,6.02
2018-12-18T13:55:03.957Z,5.98
2018-12-18T13:57:32.989Z,5.62
2018-12-18T14:00:02.031Z,5.61
2018-12-18T14:02:30.997Z,5.20
2018-12-18T14:04:59.972Z,5.04
2018-12-18T14:07:29.234Z,5.09
2018-12-18T14:09:58.395Z,5.02
2018-12-18T14:12:27.377Z,5.29
2018-12-18T14:14:56.356Z,4.88
2018-12-18T14:17:25.295Z,5.11
2018-12-18T14:19:54.396Z,5.40
2018-12-18T14:22:23.393Z,5.26
2018-12-18T14:24:52.424Z,5.32
2018-12-18T14:27:21.394Z,5.00
2018-12-18T14:29:50.393Z,5.44
2018-12-18T14:32:19.519Z,5.35
2018-12-18T14:34:48.675Z,5.40
2018-12-18T14:37:17.758Z,5.90
2018-12-18T14:39:46.787Z,4.88
2018-12-18T14:42:15.851Z,5.29
2018-12-18T14:44:44.991Z,4.55
2018-12-18T14:47:14.121Z,5.19
2018-12-18T14:49:43.188Z,4.95
2018-12-18T14:52:12.217Z,4.74
2018-12-18T14:54:41.388Z,4.82
2018-12-18T14:57:10.386Z,4.45
2018-12-18T14:59:39.537Z,4.80
2018-12-18T15:02:08.611Z,4.88
2018-12-18T15:04:37.681Z,4.66
2018-12-18T15:07:06.769Z,4.75
2018-12-18T15:09:35.799Z,5.13
2018-12-18T15:12:04.977Z,4.84
2018-12-18T15:14:33.978Z,4.89
2018-12-18T15:17:03.063Z,4.83
2018-12-18T15:19:32.143Z,4.71
2018-12-18T15:22:01.139Z,5.02
2018-12-18T15:24:30.148Z,4.74
2018-12-18T15:26:59.221Z,4.42
2018-12-18T15:29:28.247Z,4.93
2018-12-18T15:31:57.294Z,5.04
2018-12-18T15:34:26.371Z,5.16
2018-12-18T15:36:55.384Z,5.01
2018-12-18T15:39:24.422Z,5.14
2018-12-18T15:41:53.738Z,4.96
2018-12-18T15:44:22.775Z,5.47
2018-12-18T15:46:51.780Z,5.03
2018-12-18T15:49:20.867Z,5.42
2018-12-18T15:51:49.898Z,5.19
2018-12-18T15:54:18.961Z,5.64
2018-12-18T15:56:48.059Z,5.85
2018-12-18T15:59:18.824Z,5.42
2018-12-18T16:01:47.926Z,5.24
2018-12-18T16:04:18.599Z,5.67
2018-12-18T16:06:47.628Z,5.06
2018-12-18T16:09:16.638Z,5.45
2018-12-18T16:11:45.703Z,5.19
2018-12-18T16:14:14.727Z,5.50
2018-12-18T16:16:43.771Z,5.03
2018-12-18T16:19:12.914Z,5.22
2018-12-18T16:21:42.052Z,4.71
2018-12-18T16:24:11.074Z,4.93
2018-12-18T16:26:40.069Z,4.97
2018-12-18T16:29:09.046Z,4.91
2018-12-18T16:31:38.016Z,4.58
2018-12-18T16:34:07.020Z,4.83
2018-12-18T16:36:35.946Z,5.12
2018-12-18T16:39:06.848Z,5.13
2018-12-18T16:41:35.852Z,5.43
2018-12-18T16:44:04.830Z,5.48
2018-12-18T16:46:33.807Z,4.88
2018-12-18T16:49:03.205Z,4.56
2018-12-18T16:51:32.172Z,4.75
2018-12-18T16:54:01.137Z,4.29
2018-12-18T16:56:30.245Z,4.30
2018-12-18T16:58:59.230Z,4.16
2018-12-18T17:01:28.189Z,4.19
2018-12-18T17:03:57.501Z,4.51
2018-12-18T17:06:26.484Z,4.24
2018-12-18T17:08:55.970Z,4.25
2018-12-18T17:11:24.981Z,4.23
2018-12-18T17:13:53.948Z,4.29
2018-12-18T17:16:22.880Z,4.39
2018-12-18T17:18:51.881Z,4.42
2018-12-18T17:21:20.853Z,4.32
2018-12-18T17:23:49.837Z,4.32
2018-12-18T17:26:18.858Z,4.50
2018-12-18T17:28:47.773Z,4.57
2018-12-18T17:31:16.742Z,4.20
2018-12-18T17:33:46.179Z,4.29
2018-12-18T17:36:15.198Z,4.03
2018-12-18T17:38:44.164Z,4.11
2018-12-18T17:41:13.226Z,4.19
2018-12-18T17:46:10.546Z,3.98
2018-12-18T17:48:39.567Z,4.31
2018-12-18T17:51:08.531Z,4.35
2018-12-18T17:53:37.474Z,4.61
2018-12-18T17:56:06.510Z,4.66
2018-12-18T17:58:35.477Z,4.45
2018-12-18T18:01:04.455Z,4.29
2018-12-18T18:03:33.457Z,4.16
2018-12-18T18:06:02.489Z,4.23
2018-12-18T18:08:31.449Z,4.34
2018-12-18T18:11:00.845Z,4.07
2018-12-18T18:13:29.804Z,4.04
2018-12-18T18:15:58.795Z,4.38
2018-12-18T18:18:27.846Z,3.93
2018-12-18T18:20:56.820Z,4.28
2018-12-18T18:23:25.736Z,4.10
2018-12-18T18:25:55.091Z,4.03
2018-12-18T18:28:24.089Z,4.04
2018-12-18T18:30:53.098Z,4.17
2018-12-18T18:33:22.106Z,3.90
2018-12-18T18:35:51.058Z,4.13
2018-12-18T18:38:20.561Z,4.16
2018-12-18T18:40:49.591Z,4.02
2018-12-18T18:43:18.550Z,3.80
2018-12-18T18:45:47.614Z,4.12
2018-12-18T18:48:16.728Z,4.51
2018-12-18T18:50:45.712Z,4.25
2018-12-18T18:53:14.724Z,4.43
2018-12-18T18:55:43.778Z,4.21
2018-12-18T18:58:12.744Z,3.93
2018-12-18T19:00:42.495Z,3.89
2018-12-18T19:03:11.515Z,3.76
2018-12-18T19:05:40.528Z,4.05
2018-12-18T19:08:09.534Z,3.99
2018-12-18T19:10:38.562Z,3.82
2018-12-18T19:13:07.519Z,3.89
2018-12-18T19:15:36.612Z,3.86
2018-12-18T19:18:05.625Z,3.69
2018-12-18T19:20:34.627Z,3.59
2018-12-18T19:23:03.626Z,3.45
2018-12-18T19:25:32.681Z,3.37
2018-12-18T19:28:01.669Z,3.49
2018-12-18T19:30:30.666Z,3.45
2018-12-18T19:32:59.713Z,3.68
2018-12-18T19:35:28.695Z,3.51
2018-12-18T19:38:03.160Z,3.48
2018-12-18T19:40:27.103Z,3.52
2018-12-18T19:42:56.123Z,3.92
2018-12-18T19:45:25.778Z,3.79
2018-12-18T19:47:54.864Z,3.79
2018-12-18T19:50:23.875Z,3.84
2018-12-18T19:52:53.750Z,3.91
2018-12-18T19:55:22.999Z,3.62
2018-12-18T19:57:51.975Z,3.93
2018-12-18T20:00:22.397Z,3.92
2018-12-18T20:02:51.401Z,3.58
2018-12-18T20:05:20.435Z,3.36
2018-12-18T20:07:49.441Z,3.43
2018-12-18T20:10:18.498Z,3.63
2018-12-18T20:12:47.480Z,3.40
2018-12-18T20:15:16.438Z,3.28
2018-12-18T20:17:45.502Z,3.19
2018-12-18T20:20:14.520Z,3.66
2018-12-18T20:22:43.493Z,3.59
2018-12-18T20:25:12.542Z,3.12
2018-12-18T20:27:41.514Z,3.10
2018-12-18T20:30:11.967Z,3.18
2018-12-18T20:32:39.589Z,3.38
2018-12-18T20:35:08.574Z,3.30
2018-12-18T20:37:37.592Z,3.16
2018-12-18T20:40:08.732Z,3.48
2018-12-18T20:42:40.590Z,3.21
2018-12-18T20:45:09.770Z,3.18
2018-12-18T20:47:38.761Z,3.00
2018-12-18T20:50:08.040Z,2.92
2018-12-18T20:52:37.453Z,2.80
2018-12-18T20:55:06.737Z,2.90
2018-12-18T20:57:35.673Z,3.08
2018-12-18T21:00:05.457Z,2.91
2018-12-18T21:02:34.529Z,3.02
2018-12-18T21:05:03.525Z,3.18
2018-12-18T21:07:32.594Z,2.97
2018-12-18T21:10:01.563Z,2.85
2018-12-18T21:12:30.633Z,2.71
2018-12-18T21:15:00.828Z,2.91
2018-12-18T21:17:28.643Z,2.80
2018-12-18T21:19:57.717Z,2.83
2018-12-18T21:22:26.730Z,3.16
2018-12-18T21:24:55.687Z,2.93
2018-12-18T21:27:24.613Z,2.87
2018-12-18T21:29:53.639Z,3.30
2018-12-18T21:32:22.590Z,2.98
2018-12-18T21:34:51.541Z,3.28
2018-12-18T21:37:21.018Z,3.23
2018-12-18T21:39:49.964Z,3.05
2018-12-18T21:42:19.124Z,2.80
2018-12-18T21:44:48.398Z,2.79
2018-12-18T21:47:17.517Z,2.95
2018-12-18T21:49:46.570Z,3.22
2018-12-18T21:52:16.164Z,3.44
2018-12-18T21:54:45.211Z,3.28
2018-12-18T21:57:14.150Z,3.06
2018-12-18T21:59:43.192Z,3.21
2018-12-18T22:02:12.191Z,2.71
2018-12-18T22:04:41.158Z,2.93
2018-12-18T22:07:10.127Z,2.50
2018-12-18T22:09:39.091Z,2.51
2018-12-18T22:12:08.037Z,2.99
2018-12-18T22:14:37.012Z,2.60
2018-12-18T22:17:05.997Z,2.37
2018-12-18T22:19:34.896Z,2.51
2018-12-18T22:22:03.911Z,2.56
2018-12-18T22:24:33.364Z,2.79
2018-12-18T22:27:02.333Z,2.78
2018-12-18T22:29:31.324Z,2.56
2018-12-18T22:32:00.410Z,2.62
2018-12-18T22:34:29.385Z,2.15
2018-12-18T22:36:58.452Z,2.43
2018-12-18T22:39:27.442Z,2.40
2018-12-18T22:41:56.427Z,2.47
2018-12-18T22:44:25.500Z,2.33
2018-12-18T22:46:54.486Z,2.32
2018-12-18T22:49:23.497Z,2.57
2018-12-18T22:51:53.606Z,2.68
2018-12-18T22:54:22.559Z,2.56
2018-12-18T22:56:51.578Z,2.78
2018-12-18T22:59:20.878Z,2.65
2018-12-18T23:01:50.615Z,2.64
2018-12-18T23:04:19.542Z,2.56
2018-12-18T23:06:48.939Z,2.35
2018-12-18T23:09:17.949Z,2.81
2018-12-18T23:11:47.044Z,2.63
2018-12-18T23:14:16.092Z,2.51
2018-12-18T23:16:45.220Z,2.59
2018-12-18T23:19:14.243Z,3.06
2018-12-18T23:21:43.534Z,3.02
2018-12-18T23:24:12.593Z,3.41
2018-12-18T23:26:42.091Z,2.98
2018-12-18T23:29:11.097Z,2.82
2018-12-18T23:31:40.086Z,2.83
2018-12-18T23:34:09.117Z,3.14
2018-12-18T23:36:38.350Z,2.78
2018-12-18T23:39:08.807Z,2.69
2018-12-18T23:41:37.952Z,3.04
2018-12-18T23:44:07.058Z,2.59
2018-12-18T23:46:36.054Z,2.64
2018-12-18T23:49:06.197Z,2.41
2018-12-18T23:51:35.327Z,2.34
2018-12-18T23:54:04.511Z,2.47
2018-12-18T23:56:33.702Z,2.23
2018-12-18T23:59:03.072Z,2.17
